sensor_id;sensor_type;location;lat;lon;timestamp;temperature;humidity
16160;DHT22;8185;57.818;15.224;2022-08-19T00:01:57;18.90;99.90
16160;DHT22;8185;57.818;15.224;2022-08-19T00:04:28;18.90;99.90
16160;DHT22;8185;57.818;15.224;2022-08-19T00:06:56;18.90;99.90
16160;DHT22;8185;57.818;15.224;2022-08-19T00:09:24;18.90;99.90
16160;DHT22;8185;57.818;15.224;2022-08-19T00:11:52;18.80;99.90
16160;DHT22;8185;57.818;15.224;2022-08-19T00:14:21;18.80;99.90
16160;DHT22;8185;57.818;15.224;2022-08-19T00:16:49;18.70;99.90
16160;DHT22;8185;57.818;15.224;2022-08-19T00:19:20;18.70;99.90
16160;DHT22;8185;57.818;15.224;2022-08-19T00:21:49;18.60;99.90
16160;DHT22;8185;57.818;15.224;2022-08-19T00:24:16;18.50;99.90
16160;DHT22;8185;57.818;15.224;2022-08-19T00:26:45;18.40;99.90
16160;DHT22;8185;57.818;15.224;2022-08-19T00:29:13;18.30;99.90
16160;DHT22;8185;57.818;15.224;2022-08-19T00:31:41;18.30;99.90
16160;DHT22;8185;57.818;15.224;2022-08-19T00:34:09;18.20;99.90
16160;DHT22;8185;57.818;15.224;2022-08-19T00:36:37;18.20;99.90
16160;DHT22;8185;57.818;15.224;2022-08-19T00:39:06;18.20;99.90
16160;DHT22;8185;57.818;15.224;2022-08-19T00:41:34;18.10;99.90
16160;DHT22;8185;57.818;15.224;2022-08-19T00:44:06;18.20;99.90
16160;DHT22;8185;57.818;15.224;2022-08-19T00:46:36;18.20;99.90
16160;DHT22;8185;57.818;15.224;2022-08-19T00:49:09;18.20;99.90
16160;DHT22;8185;57.818;15.224;2022-08-19T00:51:36;18.10;99.90
16160;DHT22;8185;57.818;15.224;2022-08-19T00:54:05;18.10;99.90
16160;DHT22;8185;57.818;15.224;2022-08-19T00:56:33;18.00;99.90
16160;DHT22;8185;57.818;15.224;2022-08-19T00:59:02;17.90;99.90
16160;DHT22;8185;57.818;15.224;2022-08-19T01:01:34;17.90;99.90
16160;DHT22;8185;57.818;15.224;2022-08-19T01:04:06;17.80;99.90
16160;DHT22;8185;57.818;15.224;2022-08-19T01:06:35;17.80;99.90
16160;DHT22;8185;57.818;15.224;2022-08-19T01:09:04;17.80;99.90
16160;DHT22;8185;57.818;15.224;2022-08-19T01:11:35;17.70;99.90
16160;DHT22;8185;57.818;15.224;2022-08-19T01:14:03;17.70;99.90
16160;DHT22;8185;57.818;15.224;2022-08-19T01:16:32;17.60;99.90
16160;DHT22;8185;57.818;15.224;2022-08-19T01:19:00;17.60;99.90
16160;DHT22;8185;57.818;15.224;2022-08-19T01:21:32;17.60;99.90
16160;DHT22;8185;57.818;15.224;2022-08-19T01:24:03;17.60;99.90
16160;DHT22;8185;57.818;15.224;2022-08-19T01:26:30;17.60;99.90
16160;DHT22;8185;57.818;15.224;2022-08-19T01:28:59;17.50;99.90
16160;DHT22;8185;57.818;15.224;2022-08-19T01:31:29;17.50;99.90
16160;DHT22;8185;57.818;15.224;2022-08-19T01:33:57;17.50;99.90
16160;DHT22;8185;57.818;15.224;2022-08-19T01:36:29;17.50;99.90
16160;DHT22;8185;57.818;15.224;2022-08-19T01:38:57;17.40;99.90
16160;DHT22;8185;57.818;15.224;2022-08-19T01:41:27;17.40;99.90
16160;DHT22;8185;57.818;15.224;2022-08-19T01:43:54;17.40;99.90
16160;DHT22;8185;57.818;15.224;2022-08-19T01:46:22;17.30;99.90
16160;DHT22;8185;57.818;15.224;2022-08-19T01:48:49;17.30;99.90
16160;DHT22;8185;57.818;15.224;2022-08-19T01:51:16;17.20;99.90
16160;DHT22;8185;57.818;15.224;2022-08-19T01:53:47;17.10;99.90
16160;DHT22;8185;57.818;15.224;2022-08-19T01:56:14;17.10;99.90
16160;DHT22;8185;57.818;15.224;2022-08-19T01:58:46;17.10;99.90
16160;DHT22;8185;57.818;15.224;2022-08-19T02:01:16;17.10;99.90
16160;DHT22;8185;57.818;15.224;2022-08-19T02:03:44;17.10;99.90
16160;DHT22;8185;57.818;15.224;2022-08-19T02:06:11;17.20;99.90
16160;DHT22;8185;57.818;15.224;2022-08-19T02:08:39;17.20;99.90
16160;DHT22;8185;57.818;15.224;2022-08-19T02:11:07;17.20;99.90
16160;DHT22;8185;57.818;15.224;2022-08-19T02:13:34;17.20;99.90
16160;DHT22;8185;57.818;15.224;2022-08-19T02:16:04;17.20;99.90
16160;DHT22;8185;57.818;15.224;2022-08-19T02:18:31;17.10;99.90
16160;DHT22;8185;57.818;15.224;2022-08-19T02:20:59;17.20;99.90
16160;DHT22;8185;57.818;15.224;2022-08-19T02:23:26;17.10;99.90
16160;DHT22;8185;57.818;15.224;2022-08-19T02:25:53;17.10;99.90
16160;DHT22;8185;57.818;15.224;2022-08-19T02:28:21;17.10;99.90
16160;DHT22;8185;57.818;15.224;2022-08-19T02:30:49;17.20;99.90
16160;DHT22;8185;57.818;15.224;2022-08-19T02:33:17;17.20;99.90
16160;DHT22;8185;57.818;15.224;2022-08-19T02:35:46;17.20;99.90
16160;DHT22;8185;57.818;15.224;2022-08-19T02:38:14;17.20;99.90
16160;DHT22;8185;57.818;15.224;2022-08-19T02:40:55;17.10;99.90
16160;DHT22;8185;57.818;15.224;2022-08-19T02:43:23;17.10;99.90
16160;DHT22;8185;57.818;15.224;2022-08-19T02:45:52;17.00;99.90
16160;DHT22;8185;57.818;15.224;2022-08-19T02:48:22;16.90;99.90
16160;DHT22;8185;57.818;15.224;2022-08-19T02:50:52;16.90;99.90
16160;DHT22;8185;57.818;15.224;2022-08-19T02:53:22;16.90;99.90
16160;DHT22;8185;57.818;15.224;2022-08-19T02:55:50;16.90;99.90
16160;DHT22;8185;57.818;15.224;2022-08-19T02:58:18;16.90;99.90
16160;DHT22;8185;57.818;15.224;2022-08-19T03:00:50;16.90;99.90
16160;DHT22;8185;57.818;15.224;2022-08-19T03:03:19;16.90;99.90
16160;DHT22;8185;57.818;15.224;2022-08-19T03:05:47;17.00;99.90
16160;DHT22;8185;57.818;15.224;2022-08-19T03:08:14;17.00;99.90
16160;DHT22;8185;57.818;15.224;2022-08-19T03:10:44;17.00;99.90
16160;DHT22;8185;57.818;15.224;2022-08-19T03:13:13;17.00;99.90
16160;DHT22;8185;57.818;15.224;2022-08-19T03:15:42;17.00;99.90
16160;DHT22;8185;57.818;15.224;2022-08-19T03:18:11;17.10;99.90
16160;DHT22;8185;57.818;15.224;2022-08-19T03:20:45;17.10;99.90
16160;DHT22;8185;57.818;15.224;2022-08-19T03:23:13;17.00;99.90
16160;DHT22;8185;57.818;15.224;2022-08-19T03:25:42;17.00;99.90
16160;DHT22;8185;57.818;15.224;2022-08-19T03:28:10;16.90;99.90
16160;DHT22;8185;57.818;15.224;2022-08-19T03:30:38;16.90;99.90
16160;DHT22;8185;57.818;15.224;2022-08-19T03:33:07;16.90;99.90
16160;DHT22;8185;57.818;15.224;2022-08-19T03:35:35;16.80;99.90
16160;DHT22;8185;57.818;15.224;2022-08-19T03:38:05;16.80;99.90
16160;DHT22;8185;57.818;15.224;2022-08-19T03:40:36;16.80;99.90
16160;DHT22;8185;57.818;15.224;2022-08-19T03:43:03;16.80;99.90
16160;DHT22;8185;57.818;15.224;2022-08-19T03:45:31;16.80;99.90
16160;DHT22;8185;57.818;15.224;2022-08-19T03:47:59;16.70;99.90
16160;DHT22;8185;57.818;15.224;2022-08-19T03:50:26;16.60;99.90
16160;DHT22;8185;57.818;15.224;2022-08-19T03:52:54;16.60;99.90
16160;DHT22;8185;57.818;15.224;2022-08-19T03:55:23;16.60;99.90
16160;DHT22;8185;57.818;15.224;2022-08-19T03:57:50;16.50;99.90
16160;DHT22;8185;57.818;15.224;2022-08-19T04:00:18;16.50;99.90
16160;DHT22;8185;57.818;15.224;2022-08-19T04:02:45;16.60;99.90
16160;DHT22;8185;57.818;15.224;2022-08-19T04:05:12;16.60;99.90
16160;DHT22;8185;57.818;15.224;2022-08-19T04:07:40;16.60;99.90
16160;DHT22;8185;57.818;15.224;2022-08-19T04:10:08;16.70;99.90
16160;DHT22;8185;57.818;15.224;2022-08-19T04:12:37;16.60;99.90
16160;DHT22;8185;57.818;15.224;2022-08-19T04:15:05;16.60;99.90
16160;DHT22;8185;57.818;15.224;2022-08-19T04:17:34;16.60;99.90
16160;DHT22;8185;57.818;15.224;2022-08-19T04:20:01;16.60;99.90
16160;DHT22;8185;57.818;15.224;2022-08-19T04:22:28;16.60;99.90
16160;DHT22;8185;57.818;15.224;2022-08-19T04:24:56;16.70;99.90
16160;DHT22;8185;57.818;15.224;2022-08-19T04:27:23;16.60;99.90
16160;DHT22;8185;57.818;15.224;2022-08-19T04:29:52;16.70;99.90
16160;DHT22;8185;57.818;15.224;2022-08-19T04:32:19;16.70;99.90
16160;DHT22;8185;57.818;15.224;2022-08-19T04:34:48;16.70;99.90
16160;DHT22;8185;57.818;15.224;2022-08-19T04:37:15;16.80;99.90
16160;DHT22;8185;57.818;15.224;2022-08-19T04:39:42;16.80;99.90
16160;DHT22;8185;57.818;15.224;2022-08-19T04:42:27;16.80;99.90
16160;DHT22;8185;57.818;15.224;2022-08-19T04:45:11;16.90;99.90
16160;DHT22;8185;57.818;15.224;2022-08-19T04:47:40;16.90;99.90
16160;DHT22;8185;57.818;15.224;2022-08-19T04:50:09;17.00;99.90
16160;DHT22;8185;57.818;15.224;2022-08-19T04:52:37;17.00;99.90
16160;DHT22;8185;57.818;15.224;2022-08-19T04:55:08;17.00;99.90
16160;DHT22;8185;57.818;15.224;2022-08-19T04:57:36;17.10;99.90
16160;DHT22;8185;57.818;15.224;2022-08-19T05:00:08;17.20;99.90
16160;DHT22;8185;57.818;15.224;2022-08-19T05:02:37;17.30;99.90
16160;DHT22;8185;57.818;15.224;2022-08-19T05:05:05;17.30;99.90
16160;DHT22;8185;57.818;15.224;2022-08-19T05:07:32;17.30;99.90
16160;DHT22;8185;57.818;15.224;2022-08-19T05:09:59;17.40;99.90
16160;DHT22;8185;57.818;15.224;2022-08-19T05:12:27;17.60;99.90
16160;DHT22;8185;57.818;15.224;2022-08-19T05:14:55;17.60;99.90
16160;DHT22;8185;57.818;15.224;2022-08-19T05:17:24;17.60;99.90
16160;DHT22;8185;57.818;15.224;2022-08-19T05:19:51;17.70;99.90
16160;DHT22;8185;57.818;15.224;2022-08-19T05:22:36;17.80;99.90
16160;DHT22;8185;57.818;15.224;2022-08-19T05:25:07;17.90;99.90
16160;DHT22;8185;57.818;15.224;2022-08-19T05:27:34;18.00;99.90
16160;DHT22;8185;57.818;15.224;2022-08-19T05:30:04;18.10;99.90
16160;DHT22;8185;57.818;15.224;2022-08-19T05:32:33;18.20;99.90
16160;DHT22;8185;57.818;15.224;2022-08-19T05:35:00;18.20;99.90
16160;DHT22;8185;57.818;15.224;2022-08-19T05:37:28;18.30;99.90
16160;DHT22;8185;57.818;15.224;2022-08-19T05:39:55;18.40;99.90
16160;DHT22;8185;57.818;15.224;2022-08-19T05:42:23;18.50;99.90
16160;DHT22;8185;57.818;15.224;2022-08-19T05:44:50;18.60;99.90
16160;DHT22;8185;57.818;15.224;2022-08-19T05:47:18;18.80;99.90
16160;DHT22;8185;57.818;15.224;2022-08-19T05:49:47;18.90;99.90
16160;DHT22;8185;57.818;15.224;2022-08-19T05:52:16;19.00;99.90
16160;DHT22;8185;57.818;15.224;2022-08-19T05:54:43;19.00;99.90
16160;DHT22;8185;57.818;15.224;2022-08-19T05:57:14;19.10;99.90
16160;DHT22;8185;57.818;15.224;2022-08-19T05:59:41;19.20;99.90
16160;DHT22;8185;57.818;15.224;2022-08-19T06:02:11;19.30;99.90
16160;DHT22;8185;57.818;15.224;2022-08-19T06:04:39;19.50;99.90
16160;DHT22;8185;57.818;15.224;2022-08-19T06:07:10;19.60;99.90
16160;DHT22;8185;57.818;15.224;2022-08-19T06:09:37;19.80;99.90
16160;DHT22;8185;57.818;15.224;2022-08-19T06:12:05;19.90;99.90
16160;DHT22;8185;57.818;15.224;2022-08-19T06:14:34;20.10;99.90
16160;DHT22;8185;57.818;15.224;2022-08-19T06:17:02;20.20;99.90
16160;DHT22;8185;57.818;15.224;2022-08-19T06:19:30;20.40;99.90
16160;DHT22;8185;57.818;15.224;2022-08-19T06:21:59;20.50;99.90
16160;DHT22;8185;57.818;15.224;2022-08-19T06:24:29;20.70;99.90
16160;DHT22;8185;57.818;15.224;2022-08-19T06:26:58;20.90;99.90
16160;DHT22;8185;57.818;15.224;2022-08-19T06:29:26;21.00;99.90
16160;DHT22;8185;57.818;15.224;2022-08-19T06:31:57;21.20;99.90
16160;DHT22;8185;57.818;15.224;2022-08-19T06:34:26;21.40;99.90
16160;DHT22;8185;57.818;15.224;2022-08-19T06:36:54;21.60;99.90
16160;DHT22;8185;57.818;15.224;2022-08-19T06:39:24;21.70;99.90
16160;DHT22;8185;57.818;15.224;2022-08-19T06:41:57;21.80;99.90
16160;DHT22;8185;57.818;15.224;2022-08-19T06:44:26;22.00;99.90
16160;DHT22;8185;57.818;15.224;2022-08-19T06:46:54;22.00;99.90
16160;DHT22;8185;57.818;15.224;2022-08-19T06:49:22;22.10;99.90
16160;DHT22;8185;57.818;15.224;2022-08-19T06:51:51;22.20;99.90
16160;DHT22;8185;57.818;15.224;2022-08-19T06:54:18;22.30;99.90
16160;DHT22;8185;57.818;15.224;2022-08-19T06:56:46;22.60;99.90
16160;DHT22;8185;57.818;15.224;2022-08-19T06:59:16;22.60;99.90
16160;DHT22;8185;57.818;15.224;2022-08-19T07:01:47;22.70;99.90
16160;DHT22;8185;57.818;15.224;2022-08-19T07:04:17;22.80;99.90
16160;DHT22;8185;57.818;15.224;2022-08-19T07:06:45;23.00;99.90
16160;DHT22;8185;57.818;15.224;2022-08-19T07:09:14;23.10;99.90
16160;DHT22;8185;57.818;15.224;2022-08-19T07:11:45;23.20;99.90
16160;DHT22;8185;57.818;15.224;2022-08-19T07:14:15;23.30;99.90
16160;DHT22;8185;57.818;15.224;2022-08-19T07:16:44;23.50;99.90
16160;DHT22;8185;57.818;15.224;2022-08-19T07:19:12;23.50;99.90
16160;DHT22;8185;57.818;15.224;2022-08-19T07:21:40;23.60;99.90
16160;DHT22;8185;57.818;15.224;2022-08-19T07:24:08;23.70;99.90
16160;DHT22;8185;57.818;15.224;2022-08-19T07:26:39;23.90;99.90
16160;DHT22;8185;57.818;15.224;2022-08-19T07:29:08;24.10;99.90
16160;DHT22;8185;57.818;15.224;2022-08-19T07:31:37;24.20;99.90
16160;DHT22;8185;57.818;15.224;2022-08-19T07:34:06;24.30;99.90
16160;DHT22;8185;57.818;15.224;2022-08-19T07:36:36;24.50;99.90
16160;DHT22;8185;57.818;15.224;2022-08-19T07:39:07;24.50;99.90
16160;DHT22;8185;57.818;15.224;2022-08-19T07:41:36;24.50;99.90
16160;DHT22;8185;57.818;15.224;2022-08-19T07:44:04;24.60;99.90
16160;DHT22;8185;57.818;15.224;2022-08-19T07:46:33;24.80;99.90
16160;DHT22;8185;57.818;15.224;2022-08-19T07:49:03;24.80;99.90
16160;DHT22;8185;57.818;15.224;2022-08-19T07:51:31;24.90;99.90
16160;DHT22;8185;57.818;15.224;2022-08-19T07:53:58;25.00;99.90
16160;DHT22;8185;57.818;15.224;2022-08-19T07:56:26;25.00;99.90
16160;DHT22;8185;57.818;15.224;2022-08-19T07:58:53;25.10;99.90
16160;DHT22;8185;57.818;15.224;2022-08-19T08:01:24;25.10;99.90
16160;DHT22;8185;57.818;15.224;2022-08-19T08:03:53;25.10;99.90
16160;DHT22;8185;57.818;15.224;2022-08-19T08:06:39;25.00;99.90
16160;DHT22;8185;57.818;15.224;2022-08-19T08:09:28;25.00;99.90
16160;DHT22;8185;57.818;15.224;2022-08-19T08:11:59;25.20;99.90
16160;DHT22;8185;57.818;15.224;2022-08-19T08:14:31;25.40;99.90
16160;DHT22;8185;57.818;15.224;2022-08-19T08:16:59;25.50;99.90
16160;DHT22;8185;57.818;15.224;2022-08-19T08:19:28;25.60;99.90
16160;DHT22;8185;57.818;15.224;2022-08-19T08:21:59;25.60;99.90
16160;DHT22;8185;57.818;15.224;2022-08-19T08:24:28;25.50;99.90
16160;DHT22;8185;57.818;15.224;2022-08-19T08:26:58;25.50;99.90
16160;DHT22;8185;57.818;15.224;2022-08-19T08:29:26;25.50;99.90
16160;DHT22;8185;57.818;15.224;2022-08-19T08:31:54;25.60;99.90
16160;DHT22;8185;57.818;15.224;2022-08-19T08:34:22;25.70;99.90
16160;DHT22;8185;57.818;15.224;2022-08-19T08:36:49;25.90;99.90
16160;DHT22;8185;57.818;15.224;2022-08-19T08:39:20;26.10;99.90
16160;DHT22;8185;57.818;15.224;2022-08-19T08:41:53;26.20;99.90
16160;DHT22;8185;57.818;15.224;2022-08-19T08:44:27;26.40;99.90
16160;DHT22;8185;57.818;15.224;2022-08-19T08:46:59;26.50;99.90
16160;DHT22;8185;57.818;15.224;2022-08-19T08:49:36;26.40;99.90
16160;DHT22;8185;57.818;15.224;2022-08-19T08:52:10;26.60;99.90
16160;DHT22;8185;57.818;15.224;2022-08-19T08:54:41;26.60;99.90
16160;DHT22;8185;57.818;15.224;2022-08-19T08:57:12;26.60;99.90
16160;DHT22;8185;57.818;15.224;2022-08-19T08:59:42;26.60;99.90
16160;DHT22;8185;57.818;15.224;2022-08-19T09:02:10;26.60;99.90
16160;DHT22;8185;57.818;15.224;2022-08-19T09:04:38;26.80;99.90
16160;DHT22;8185;57.818;15.224;2022-08-19T09:07:37;26.90;99.90
16160;DHT22;8185;57.818;15.224;2022-08-19T09:10:17;27.10;99.90
16160;DHT22;8185;57.818;15.224;2022-08-19T09:12:53;27.30;99.90
16160;DHT22;8185;57.818;15.224;2022-08-19T09:15:28;27.60;99.90
16160;DHT22;8185;57.818;15.224;2022-08-19T09:18:00;27.80;99.90
16160;DHT22;8185;57.818;15.224;2022-08-19T09:20:29;27.70;99.90
16160;DHT22;8185;57.818;15.224;2022-08-19T09:22:58;27.80;99.90
16160;DHT22;8185;57.818;15.224;2022-08-19T09:25:26;27.80;99.90
16160;DHT22;8185;57.818;15.224;2022-08-19T09:27:55;27.90;99.90
16160;DHT22;8185;57.818;15.224;2022-08-19T09:30:25;27.90;99.90
16160;DHT22;8185;57.818;15.224;2022-08-19T09:32:53;28.10;99.90
16160;DHT22;8185;57.818;15.224;2022-08-19T09:35:23;28.20;99.90
16160;DHT22;8185;57.818;15.224;2022-08-19T09:37:51;28.30;99.90
16160;DHT22;8185;57.818;15.224;2022-08-19T09:40:18;28.60;99.90
16160;DHT22;8185;57.818;15.224;2022-08-19T09:42:47;28.30;99.90
16160;DHT22;8185;57.818;15.224;2022-08-19T09:45:16;28.00;99.90
16160;DHT22;8185;57.818;15.224;2022-08-19T09:47:47;28.00;99.90
16160;DHT22;8185;57.818;15.224;2022-08-19T09:50:16;28.20;99.90
16160;DHT22;8185;57.818;15.224;2022-08-19T09:52:45;28.40;99.90
16160;DHT22;8185;57.818;15.224;2022-08-19T09:55:12;28.40;99.90
16160;DHT22;8185;57.818;15.224;2022-08-19T09:57:41;28.40;99.90
16160;DHT22;8185;57.818;15.224;2022-08-19T10:00:11;28.30;99.90
16160;DHT22;8185;57.818;15.224;2022-08-19T10:02:38;28.60;99.90
16160;DHT22;8185;57.818;15.224;2022-08-19T10:05:06;28.80;99.90
16160;DHT22;8185;57.818;15.224;2022-08-19T10:07:51;28.90;99.90
16160;DHT22;8185;57.818;15.224;2022-08-19T10:10:18;28.90;99.90
16160;DHT22;8185;57.818;15.224;2022-08-19T10:12:45;29.40;99.90
16160;DHT22;8185;57.818;15.224;2022-08-19T10:15:15;29.50;99.60
16160;DHT22;8185;57.818;15.224;2022-08-19T10:17:42;29.80;99.10
16160;DHT22;8185;57.818;15.224;2022-08-19T10:20:10;30.20;98.10
16160;DHT22;8185;57.818;15.224;2022-08-19T10:22:37;30.10;97.90
16160;DHT22;8185;57.818;15.224;2022-08-19T10:25:07;30.30;97.80
16160;DHT22;8185;57.818;15.224;2022-08-19T10:27:34;30.20;97.10
16160;DHT22;8185;57.818;15.224;2022-08-19T10:30:03;30.40;96.10
16160;DHT22;8185;57.818;15.224;2022-08-19T10:32:32;30.90;96.20
16160;DHT22;8185;57.818;15.224;2022-08-19T10:35:00;31.40;95.20
16160;DHT22;8185;57.818;15.224;2022-08-19T10:37:27;31.20;94.40
16160;DHT22;8185;57.818;15.224;2022-08-19T10:39:56;31.00;94.00
16160;DHT22;8185;57.818;15.224;2022-08-19T10:42:24;30.30;93.40
16160;DHT22;8185;57.818;15.224;2022-08-19T10:44:51;30.60;93.80
16160;DHT22;8185;57.818;15.224;2022-08-19T10:47:18;30.40;93.70
16160;DHT22;8185;57.818;15.224;2022-08-19T10:49:48;30.10;93.00
16160;DHT22;8185;57.818;15.224;2022-08-19T10:52:33;30.40;93.70
16160;DHT22;8185;57.818;15.224;2022-08-19T10:55:00;31.30;93.70
16160;DHT22;8185;57.818;15.224;2022-08-19T10:57:45;32.00;92.40
16160;DHT22;8185;57.818;15.224;2022-08-19T11:00:13;32.70;91.80
16160;DHT22;8185;57.818;15.224;2022-08-19T11:02:41;33.00;90.40
16160;DHT22;8185;57.818;15.224;2022-08-19T11:05:10;33.00;90.30
16160;DHT22;8185;57.818;15.224;2022-08-19T11:07:38;33.00;87.20
16160;DHT22;8185;57.818;15.224;2022-08-19T11:10:07;33.40;88.90
16160;DHT22;8185;57.818;15.224;2022-08-19T11:12:37;33.80;84.80
16160;DHT22;8185;57.818;15.224;2022-08-19T11:15:07;33.40;84.10
16160;DHT22;8185;57.818;15.224;2022-08-19T11:17:36;33.70;82.90
16160;DHT22;8185;57.818;15.224;2022-08-19T11:20:09;33.50;83.90
16160;DHT22;8185;57.818;15.224;2022-08-19T11:22:36;33.50;83.80
16160;DHT22;8185;57.818;15.224;2022-08-19T11:25:04;33.40;84.10
16160;DHT22;8185;57.818;15.224;2022-08-19T11:27:32;33.50;78.90
16160;DHT22;8185;57.818;15.224;2022-08-19T11:29:59;33.90;81.10
16160;DHT22;8185;57.818;15.224;2022-08-19T11:32:29;33.90;79.60
16160;DHT22;8185;57.818;15.224;2022-08-19T11:34:57;34.00;82.30
16160;DHT22;8185;57.818;15.224;2022-08-19T11:37:25;34.00;80.60
16160;DHT22;8185;57.818;15.224;2022-08-19T11:39:52;33.40;81.00
16160;DHT22;8185;57.818;15.224;2022-08-19T11:42:20;33.10;81.80
16160;DHT22;8185;57.818;15.224;2022-08-19T11:45:05;32.80;83.30
16160;DHT22;8185;57.818;15.224;2022-08-19T11:47:33;32.60;85.40
16160;DHT22;8185;57.818;15.224;2022-08-19T11:50:00;32.60;82.80
16160;DHT22;8185;57.818;15.224;2022-08-19T11:52:29;32.40;83.10
16160;DHT22;8185;57.818;15.224;2022-08-19T11:54:56;32.10;83.70
16160;DHT22;8185;57.818;15.224;2022-08-19T11:57:23;31.80;84.50
16160;DHT22;8185;57.818;15.224;2022-08-19T11:59:52;31.60;84.40
16160;DHT22;8185;57.818;15.224;2022-08-19T12:02:19;31.10;85.20
16160;DHT22;8185;57.818;15.224;2022-08-19T12:04:47;31.30;87.70
16160;DHT22;8185;57.818;15.224;2022-08-19T12:07:15;31.40;87.70
16160;DHT22;8185;57.818;15.224;2022-08-19T12:09:43;30.90;88.40
16160;DHT22;8185;57.818;15.224;2022-08-19T12:12:11;30.90;87.20
16160;DHT22;8185;57.818;15.224;2022-08-19T12:14:39;30.80;86.40
16160;DHT22;8185;57.818;15.224;2022-08-19T12:17:06;31.00;87.20
16160;DHT22;8185;57.818;15.224;2022-08-19T12:19:36;31.10;86.10
16160;DHT22;8185;57.818;15.224;2022-08-19T12:22:05;31.10;85.40
16160;DHT22;8185;57.818;15.224;2022-08-19T12:24:33;31.00;85.10
16160;DHT22;8185;57.818;15.224;2022-08-19T12:27:02;30.80;85.60
16160;DHT22;8185;57.818;15.224;2022-08-19T12:29:29;30.60;85.00
16160;DHT22;8185;57.818;15.224;2022-08-19T12:31:57;30.50;86.00
16160;DHT22;8185;57.818;15.224;2022-08-19T12:34:28;30.50;85.70
16160;DHT22;8185;57.818;15.224;2022-08-19T12:36:57;30.50;87.50
16160;DHT22;8185;57.818;15.224;2022-08-19T12:39:24;30.40;86.40
16160;DHT22;8185;57.818;15.224;2022-08-19T12:41:52;30.40;88.30
16160;DHT22;8185;57.818;15.224;2022-08-19T12:44:21;30.30;88.00
16160;DHT22;8185;57.818;15.224;2022-08-19T12:46:48;30.30;88.90
16160;DHT22;8185;57.818;15.224;2022-08-19T12:49:16;30.20;86.80
16160;DHT22;8185;57.818;15.224;2022-08-19T12:51:43;30.20;88.80
16160;DHT22;8185;57.818;15.224;2022-08-19T12:54:11;30.20;89.80
16160;DHT22;8185;57.818;15.224;2022-08-19T12:56:39;30.30;89.40
16160;DHT22;8185;57.818;15.224;2022-08-19T12:59:06;30.10;88.10
16160;DHT22;8185;57.818;15.224;2022-08-19T13:01:35;30.10;89.60
16160;DHT22;8185;57.818;15.224;2022-08-19T13:04:04;30.20;90.00
16160;DHT22;8185;57.818;15.224;2022-08-19T13:06:31;30.30;88.30
16160;DHT22;8185;57.818;15.224;2022-08-19T13:08:58;30.50;90.30
16160;DHT22;8185;57.818;15.224;2022-08-19T13:11:26;31.00;88.80
16160;DHT22;8185;57.818;15.224;2022-08-19T13:13:58;31.00;86.50
16160;DHT22;8185;57.818;15.224;2022-08-19T13:16:26;31.00;90.10
16160;DHT22;8185;57.818;15.224;2022-08-19T13:18:55;30.90;88.30
16160;DHT22;8185;57.818;15.224;2022-08-19T13:21:25;30.70;88.00
16160;DHT22;8185;57.818;15.224;2022-08-19T13:23:53;30.50;89.90
16160;DHT22;8185;57.818;15.224;2022-08-19T13:26:21;30.40;87.80
16160;DHT22;8185;57.818;15.224;2022-08-19T13:28:48;30.10;88.50
16160;DHT22;8185;57.818;15.224;2022-08-19T13:31:35;29.80;90.80
16160;DHT22;8185;57.818;15.224;2022-08-19T13:34:29;29.60;90.90
16160;DHT22;8185;57.818;15.224;2022-08-19T13:36:57;29.50;91.00
16160;DHT22;8185;57.818;15.224;2022-08-19T13:39:25;29.30;90.70
16160;DHT22;8185;57.818;15.224;2022-08-19T13:41:53;29.20;91.90
16160;DHT22;8185;57.818;15.224;2022-08-19T13:44:20;29.10;92.50
16160;DHT22;8185;57.818;15.224;2022-08-19T13:46:48;29.00;92.00
16160;DHT22;8185;57.818;15.224;2022-08-19T13:49:20;28.70;92.50
16160;DHT22;8185;57.818;15.224;2022-08-19T13:51:48;28.50;92.90
16160;DHT22;8185;57.818;15.224;2022-08-19T13:54:16;28.50;93.20
16160;DHT22;8185;57.818;15.224;2022-08-19T13:56:44;28.50;93.60
16160;DHT22;8185;57.818;15.224;2022-08-19T13:59:12;28.50;93.80
16160;DHT22;8185;57.818;15.224;2022-08-19T14:01:40;28.40;93.60
16160;DHT22;8185;57.818;15.224;2022-08-19T14:04:08;28.40;93.70
16160;DHT22;8185;57.818;15.224;2022-08-19T14:06:37;28.30;93.50
16160;DHT22;8185;57.818;15.224;2022-08-19T14:09:05;28.40;94.30
16160;DHT22;8185;57.818;15.224;2022-08-19T14:11:33;28.30;94.20
16160;DHT22;8185;57.818;15.224;2022-08-19T14:14:01;28.20;93.60
16160;DHT22;8185;57.818;15.224;2022-08-19T14:16:28;28.10;93.60
16160;DHT22;8185;57.818;15.224;2022-08-19T14:18:58;28.10;94.30
16160;DHT22;8185;57.818;15.224;2022-08-19T14:21:26;28.20;94.30
16160;DHT22;8185;57.818;15.224;2022-08-19T14:23:54;28.30;94.10
16160;DHT22;8185;57.818;15.224;2022-08-19T14:26:22;28.40;93.90
16160;DHT22;8185;57.818;15.224;2022-08-19T14:28:50;28.40;94.70
16160;DHT22;8185;57.818;15.224;2022-08-19T14:31:19;28.20;95.10
16160;DHT22;8185;57.818;15.224;2022-08-19T14:33:50;28.00;95.50
16160;DHT22;8185;57.818;15.224;2022-08-19T14:36:17;28.10;95.80
16160;DHT22;8185;57.818;15.224;2022-08-19T14:38:45;27.90;96.40
16160;DHT22;8185;57.818;15.224;2022-08-19T14:41:16;27.60;95.80
16160;DHT22;8185;57.818;15.224;2022-08-19T14:43:45;27.50;96.00
16160;DHT22;8185;57.818;15.224;2022-08-19T14:46:14;27.30;96.40
16160;DHT22;8185;57.818;15.224;2022-08-19T14:48:42;27.30;96.80
16160;DHT22;8185;57.818;15.224;2022-08-19T14:51:10;27.20;97.50
16160;DHT22;8185;57.818;15.224;2022-08-19T14:53:38;27.20;97.60
16160;DHT22;8185;57.818;15.224;2022-08-19T14:56:08;27.20;97.70
16160;DHT22;8185;57.818;15.224;2022-08-19T14:58:37;27.00;97.20
16160;DHT22;8185;57.818;15.224;2022-08-19T15:01:06;27.00;97.50
16160;DHT22;8185;57.818;15.224;2022-08-19T15:03:33;26.90;97.90
16160;DHT22;8185;57.818;15.224;2022-08-19T15:06:01;26.90;98.10
16160;DHT22;8185;57.818;15.224;2022-08-19T15:08:30;26.90;98.30
16160;DHT22;8185;57.818;15.224;2022-08-19T15:10:59;27.00;98.30
16160;DHT22;8185;57.818;15.224;2022-08-19T15:13:27;27.20;98.40
16160;DHT22;8185;57.818;15.224;2022-08-19T15:15:57;27.70;98.90
16160;DHT22;8185;57.818;15.224;2022-08-19T15:18:24;28.40;96.80
16160;DHT22;8185;57.818;15.224;2022-08-19T15:20:51;29.30;96.70
16160;DHT22;8185;57.818;15.224;2022-08-19T15:23:20;30.10;94.50
16160;DHT22;8185;57.818;15.224;2022-08-19T15:25:48;31.10;93.20
16160;DHT22;8185;57.818;15.224;2022-08-19T15:28:21;32.20;92.20
16160;DHT22;8185;57.818;15.224;2022-08-19T15:30:48;33.00;90.00
16160;DHT22;8185;57.818;15.224;2022-08-19T15:33:18;33.60;90.00
16160;DHT22;8185;57.818;15.224;2022-08-19T15:35:47;34.10;85.50
16160;DHT22;8185;57.818;15.224;2022-08-19T15:38:15;33.30;85.60
16160;DHT22;8185;57.818;15.224;2022-08-19T15:40:44;33.20;85.70
16160;DHT22;8185;57.818;15.224;2022-08-19T15:43:14;33.50;85.50